<?xml version="1.0" encoding="UTF-8" standalone="no" ?>
<gpx xmlns="http://www.topografix.com/GPX/1/1" xmlns:xsi="http://www.w3.org/2001/XMLSchema-instance" xsi:schemaLocation="http://www.topografix.com/GPX/1/1 http://www.topografix.com/GPX/1/1/gpx.xsd" version="1.1" creator="VisuGPX - https://www.visugpx.com">
  <metadata>
    <name>Balades et randos - Ecurie AMOEDO</name>
  </metadata>
  <trk>
    <name><![CDATA[Bréhémont]]></name>
    <trkseg>
      <trkpt lat="47.33147" lon="0.46908">
        <ele>41</ele>
        <time>2019-08-09T07:26:08.000Z</time>
      </trkpt>
      <trkpt lat="47.33136" lon="0.46919">
        <ele>40</ele>
        <time>2019-08-09T07:26:14.765Z</time>
      </trkpt>
      <trkpt lat="47.32973" lon="0.47002">
        <ele>39</ele>
        <time>2019-08-09T07:27:41.345Z</time>
      </trkpt>
      <trkpt lat="47.32833" lon="0.46915">
        <ele>40</ele>
        <time>2019-08-09T07:28:57.161Z</time>
      </trkpt>
      <trkpt lat="47.329" lon="0.46683">
        <ele>40</ele>
        <time>2019-08-09T07:30:22.607Z</time>
      </trkpt>
      <trkpt lat="47.32754" lon="0.46533">
        <ele>38</ele>
        <time>2019-08-09T07:31:51.710Z</time>
      </trkpt>
      <trkpt lat="47.32719" lon="0.46439">
        <ele>39</ele>
        <time>2019-08-09T07:32:28.180Z</time>
      </trkpt>
      <trkpt lat="47.3279" lon="0.46374">
        <ele>39</ele>
        <time>2019-08-09T07:33:10.055Z</time>
      </trkpt>
      <trkpt lat="47.32696" lon="0.46255">
        <ele>38</ele>
        <time>2019-08-09T07:34:12.283Z</time>
      </trkpt>
      <trkpt lat="47.32358" lon="0.45782">
        <ele>44</ele>
        <time>2019-08-09T07:38:05.274Z</time>
      </trkpt>
      <trkpt lat="47.32265" lon="0.45507">
        <ele>45</ele>
        <time>2019-08-09T07:39:49.423Z</time>
      </trkpt>
      <trkpt lat="47.32184" lon="0.45241">
        <ele>40</ele>
        <time>2019-08-09T07:41:28.436Z</time>
      </trkpt>
      <trkpt lat="47.3207" lon="0.44812">
        <ele>38</ele>
        <time>2019-08-09T07:44:04.706Z</time>
      </trkpt>
      <trkpt lat="47.31879" lon="0.44892">
        <ele>38</ele>
        <time>2019-08-09T07:45:43.952Z</time>
      </trkpt>
      <trkpt lat="47.31781" lon="0.44513">
        <ele>39</ele>
        <time>2019-08-09T07:48:01.455Z</time>
      </trkpt>
      <trkpt lat="47.31785" lon="0.44479">
        <ele>39</ele>
        <time>2019-08-09T07:48:13.262Z</time>
      </trkpt>
      <trkpt lat="47.31745" lon="0.44294">
        <ele>39</ele>
        <time>2019-08-09T07:49:18.971Z</time>
      </trkpt>
      <trkpt lat="47.31708" lon="0.4414">
        <ele>39</ele>
        <time>2019-08-09T07:50:14.572Z</time>
      </trkpt>
      <trkpt lat="47.31639" lon="0.43812">
        <ele>38</ele>
        <time>2019-08-09T07:52:10.710Z</time>
      </trkpt>
      <trkpt lat="47.3162" lon="0.43752">
        <ele>38</ele>
        <time>2019-08-09T07:52:33.356Z</time>
      </trkpt>
      <trkpt lat="47.31586" lon="0.43645">
        <ele>38</ele>
        <time>2019-08-09T07:53:13.409Z</time>
      </trkpt>
      <trkpt lat="47.31586" lon="0.436">
        <ele>38</ele>
        <time>2019-08-09T07:53:28.714Z</time>
      </trkpt>
      <trkpt lat="47.31618" lon="0.43518">
        <ele>37</ele>
        <time>2019-08-09T07:54:00.866Z</time>
      </trkpt>
      <trkpt lat="47.31607" lon="0.43436">
        <ele>37</ele>
        <time>2019-08-09T07:54:29.492Z</time>
      </trkpt>
      <trkpt lat="47.31556" lon="0.43387">
        <ele>37</ele>
        <time>2019-08-09T07:54:59.482Z</time>
      </trkpt>
      <trkpt lat="47.31538" lon="0.43367">
        <ele>37</ele>
        <time>2019-08-09T07:55:11.201Z</time>
      </trkpt>
      <trkpt lat="47.31482" lon="0.43224">
        <ele>38</ele>
        <time>2019-08-09T07:56:06.961Z</time>
      </trkpt>
      <trkpt lat="47.3142" lon="0.42941">
        <ele>38</ele>
        <time>2019-08-09T07:57:47.996Z</time>
      </trkpt>
      <trkpt lat="47.31402" lon="0.42952">
        <ele>38</ele>
        <time>2019-08-09T07:57:57.800Z</time>
      </trkpt>
      <trkpt lat="47.31315" lon="0.42815">
        <ele>39</ele>
        <time>2019-08-09T07:59:01.418Z</time>
      </trkpt>
      <trkpt lat="47.31308" lon="0.42764">
        <ele>39</ele>
        <time>2019-08-09T07:59:18.892Z</time>
      </trkpt>
      <trkpt lat="47.31299" lon="0.42724">
        <ele>39</ele>
        <time>2019-08-09T07:59:33.062Z</time>
      </trkpt>
      <trkpt lat="47.31274" lon="0.42687">
        <ele>39</ele>
        <time>2019-08-09T07:59:51.069Z</time>
      </trkpt>
      <trkpt lat="47.31234" lon="0.42589">
        <ele>38</ele>
        <time>2019-08-09T08:00:29.760Z</time>
      </trkpt>
      <trkpt lat="47.3125" lon="0.42567">
        <ele>38</ele>
        <time>2019-08-09T08:00:41.078Z</time>
      </trkpt>
      <trkpt lat="47.31234" lon="0.42531">
        <ele>38</ele>
        <time>2019-08-09T08:00:55.709Z</time>
      </trkpt>
      <trkpt lat="47.31202" lon="0.42506">
        <ele>38</ele>
        <time>2019-08-09T08:01:13.957Z</time>
      </trkpt>
      <trkpt lat="47.31174" lon="0.42494">
        <ele>37</ele>
        <time>2019-08-09T08:01:28.384Z</time>
      </trkpt>
      <trkpt lat="47.31137" lon="0.42457">
        <ele>38</ele>
        <time>2019-08-09T08:01:50.699Z</time>
      </trkpt>
      <trkpt lat="47.31111" lon="0.42414">
        <ele>39</ele>
        <time>2019-08-09T08:02:10.287Z</time>
      </trkpt>
      <trkpt lat="47.30985" lon="0.42311">
        <ele>38</ele>
        <time>2019-08-09T08:03:21.978Z</time>
      </trkpt>
      <trkpt lat="47.30843" lon="0.42171">
        <ele>38</ele>
        <time>2019-08-09T08:04:47.790Z</time>
      </trkpt>
      <trkpt lat="47.30792" lon="0.42109">
        <ele>39</ele>
        <time>2019-08-09T08:05:20.965Z</time>
      </trkpt>
      <trkpt lat="47.30716" lon="0.42051">
        <ele>38</ele>
        <time>2019-08-09T08:06:03.635Z</time>
      </trkpt>
      <trkpt lat="47.30694" lon="0.42014">
        <ele>38</ele>
        <time>2019-08-09T08:06:20.138Z</time>
      </trkpt>
      <trkpt lat="47.3067" lon="0.41913">
        <ele>37</ele>
        <time>2019-08-09T08:06:56.503Z</time>
      </trkpt>
      <trkpt lat="47.30624" lon="0.41806">
        <ele>37</ele>
        <time>2019-08-09T08:07:39.336Z</time>
      </trkpt>
      <trkpt lat="47.30559" lon="0.41724">
        <ele>37</ele>
        <time>2019-08-09T08:08:22.240Z</time>
      </trkpt>
      <trkpt lat="47.3047" lon="0.41549">
        <ele>37</ele>
        <time>2019-08-09T08:09:36.647Z</time>
      </trkpt>
      <trkpt lat="47.30422" lon="0.41503">
        <ele>39</ele>
        <time>2019-08-09T08:10:05.126Z</time>
      </trkpt>
      <trkpt lat="47.30374" lon="0.41458">
        <ele>40</ele>
        <time>2019-08-09T08:10:33.587Z</time>
      </trkpt>
      <trkpt lat="47.3028" lon="0.40332">
        <ele>40</ele>
        <time>2019-08-09T08:16:58.680Z</time>
      </trkpt>
      <trkpt lat="47.30209" lon="0.40137">
        <ele>40</ele>
        <time>2019-08-09T08:18:13.901Z</time>
      </trkpt>
      <trkpt lat="47.30129" lon="0.40004">
        <ele>39</ele>
        <time>2019-08-09T08:19:14.285Z</time>
      </trkpt>
      <trkpt lat="47.30103" lon="0.39982">
        <ele>39</ele>
        <time>2019-08-09T08:19:29.272Z</time>
      </trkpt>
      <trkpt lat="47.30042" lon="0.3992">
        <ele>39</ele>
        <time>2019-08-09T08:20:06.423Z</time>
      </trkpt>
      <trkpt lat="47.30026" lon="0.39774">
        <ele>37</ele>
        <time>2019-08-09T08:20:56.554Z</time>
      </trkpt>
      <trkpt lat="47.30041" lon="0.3957">
        <ele>37</ele>
        <time>2019-08-09T08:22:06.079Z</time>
      </trkpt>
      <trkpt lat="47.30003" lon="0.39465">
        <ele>38</ele>
        <time>2019-08-09T08:22:46.448Z</time>
      </trkpt>
      <trkpt lat="47.29977" lon="0.39353">
        <ele>38</ele>
        <time>2019-08-09T08:23:26.507Z</time>
      </trkpt>
      <trkpt lat="47.29983" lon="0.39138">
        <ele>37</ele>
        <time>2019-08-09T08:24:39.573Z</time>
      </trkpt>
      <trkpt lat="47.29962" lon="0.39027">
        <ele>37</ele>
        <time>2019-08-09T08:25:18.955Z</time>
      </trkpt>
      <trkpt lat="47.29985" lon="0.38963">
        <ele>37</ele>
        <time>2019-08-09T08:25:43.425Z</time>
      </trkpt>
      <trkpt lat="47.29943" lon="0.38975">
        <ele>38</ele>
        <time>2019-08-09T08:26:04.665Z</time>
      </trkpt>
      <trkpt lat="47.29897" lon="0.38768">
        <ele>38</ele>
        <time>2019-08-09T08:27:18.581Z</time>
      </trkpt>
      <trkpt lat="47.29877" lon="0.38748">
        <ele>38</ele>
        <time>2019-08-09T08:27:30.673Z</time>
      </trkpt>
      <trkpt lat="47.29665" lon="0.38713">
        <ele>39</ele>
        <time>2019-08-09T08:29:17.267Z</time>
      </trkpt>
      <trkpt lat="47.29582" lon="0.3863">
        <ele>37</ele>
        <time>2019-08-09T08:30:07.630Z</time>
      </trkpt>
      <trkpt lat="47.29548" lon="0.38548">
        <ele>37</ele>
        <time>2019-08-09T08:30:40.003Z</time>
      </trkpt>
      <trkpt lat="47.29488" lon="0.38475">
        <ele>38</ele>
        <time>2019-08-09T08:31:18.992Z</time>
      </trkpt>
      <trkpt lat="47.29422" lon="0.38195">
        <ele>38</ele>
        <time>2019-08-09T08:32:59.690Z</time>
      </trkpt>
      <trkpt lat="47.29372" lon="0.37918">
        <ele>37</ele>
        <time>2019-08-09T08:34:36.958Z</time>
      </trkpt>
      <trkpt lat="47.29329" lon="0.37879">
        <ele>37</ele>
        <time>2019-08-09T08:35:02.448Z</time>
      </trkpt>
      <trkpt lat="47.2926" lon="0.3786">
        <ele>38</ele>
        <time>2019-08-09T08:35:37.344Z</time>
      </trkpt>
      <trkpt lat="47.29214" lon="0.37791">
        <ele>39</ele>
        <time>2019-08-09T08:36:10.259Z</time>
      </trkpt>
      <trkpt lat="47.29102" lon="0.37504">
        <ele>39</ele>
        <time>2019-08-09T08:38:02.837Z</time>
      </trkpt>
      <trkpt lat="47.29094" lon="0.37388">
        <ele>38</ele>
        <time>2019-08-09T08:38:42.342Z</time>
      </trkpt>
      <trkpt lat="47.2911" lon="0.37197">
        <ele>37</ele>
        <time>2019-08-09T08:39:47.625Z</time>
      </trkpt>
      <trkpt lat="47.2916" lon="0.37053">
        <ele>35</ele>
        <time>2019-08-09T08:40:42.355Z</time>
      </trkpt>
      <trkpt lat="47.28936" lon="0.3627">
        <ele>36</ele>
        <time>2019-08-09T08:45:30.855Z</time>
      </trkpt>
      <trkpt lat="47.28917" lon="0.36045">
        <ele>37</ele>
        <time>2019-08-09T08:46:47.905Z</time>
      </trkpt>
      <trkpt lat="47.28911" lon="0.35903">
        <ele>37</ele>
        <time>2019-08-09T08:47:36.055Z</time>
      </trkpt>
      <trkpt lat="47.28917" lon="0.35805">
        <ele>38</ele>
        <time>2019-08-09T08:48:09.346Z</time>
      </trkpt>
      <trkpt lat="47.28946" lon="0.35742">
        <ele>38</ele>
        <time>2019-08-09T08:48:35.300Z</time>
      </trkpt>
      <trkpt lat="47.28949" lon="0.35718">
        <ele>38</ele>
        <time>2019-08-09T08:48:43.440Z</time>
      </trkpt>
      <trkpt lat="47.2877" lon="0.35508">
        <ele>36</ele>
        <time>2019-08-09T08:50:37.949Z</time>
      </trkpt>
      <trkpt lat="47.28738" lon="0.35455">
        <ele>38</ele>
        <time>2019-08-09T08:51:02.243Z</time>
      </trkpt>
      <trkpt lat="47.28757" lon="0.35399">
        <ele>36</ele>
        <time>2019-08-09T08:51:23.435Z</time>
      </trkpt>
      <trkpt lat="47.28796" lon="0.3533">
        <ele>36</ele>
        <time>2019-08-09T08:51:53.912Z</time>
      </trkpt>
      <trkpt lat="47.28792" lon="0.35289">
        <ele>36</ele>
        <time>2019-08-09T08:52:07.934Z</time>
      </trkpt>
      <trkpt lat="47.28742" lon="0.35212">
        <ele>36</ele>
        <time>2019-08-09T08:52:44.015Z</time>
      </trkpt>
      <trkpt lat="47.28723" lon="0.35135">
        <ele>35</ele>
        <time>2019-08-09T08:53:11.872Z</time>
      </trkpt>
      <trkpt lat="47.28646" lon="0.35006">
        <ele>36</ele>
        <time>2019-08-09T08:54:10.211Z</time>
      </trkpt>
      <trkpt lat="47.28582" lon="0.34822">
        <ele>36</ele>
        <time>2019-08-09T08:55:20.548Z</time>
      </trkpt>
      <trkpt lat="47.28506" lon="0.34575">
        <ele>35</ele>
        <time>2019-08-09T08:56:52.485Z</time>
      </trkpt>
      <trkpt lat="47.28415" lon="0.34281">
        <ele>36</ele>
        <time>2019-08-09T08:58:42.291Z</time>
      </trkpt>
      <trkpt lat="47.28307" lon="0.34092">
        <ele>36</ele>
        <time>2019-08-09T09:00:06.050Z</time>
      </trkpt>
      <trkpt lat="47.2824" lon="0.34006">
        <ele>37</ele>
        <time>2019-08-09T09:00:50.459Z</time>
      </trkpt>
      <trkpt lat="47.2802" lon="0.338">
        <ele>37</ele>
        <time>2019-08-09T09:03:00.790Z</time>
      </trkpt>
      <trkpt lat="47.27972" lon="0.33708">
        <ele>36</ele>
        <time>2019-08-09T09:03:40.242Z</time>
      </trkpt>
      <trkpt lat="47.27915" lon="0.33646">
        <ele>36</ele>
        <time>2019-08-09T09:04:15.669Z</time>
      </trkpt>
      <trkpt lat="47.27867" lon="0.33609">
        <ele>36</ele>
        <time>2019-08-09T09:04:42.679Z</time>
      </trkpt>
      <trkpt lat="47.27797" lon="0.33457">
        <ele>37</ele>
        <time>2019-08-09T09:05:45.129Z</time>
      </trkpt>
      <trkpt lat="47.27709" lon="0.33313">
        <ele>36</ele>
        <time>2019-08-09T09:06:51.140Z</time>
      </trkpt>
      <trkpt lat="47.27618" lon="0.33186">
        <ele>36</ele>
        <time>2019-08-09T09:07:53.500Z</time>
      </trkpt>
      <trkpt lat="47.27441" lon="0.33513">
        <ele>36</ele>
        <time>2019-08-09T09:10:15.491Z</time>
      </trkpt>
      <trkpt lat="47.2742" lon="0.33534">
        <ele>36</ele>
        <time>2019-08-09T09:10:28.020Z</time>
      </trkpt>
      <trkpt lat="47.27358" lon="0.33513">
        <ele>37</ele>
        <time>2019-08-09T09:11:00.175Z</time>
      </trkpt>
      <trkpt lat="47.27343" lon="0.33701">
        <ele>36</ele>
        <time>2019-08-09T09:12:04.683Z</time>
      </trkpt>
      <trkpt lat="47.27433" lon="0.33905">
        <ele>37</ele>
        <time>2019-08-09T09:13:27.322Z</time>
      </trkpt>
      <trkpt lat="47.27493" lon="0.33985">
        <ele>37</ele>
        <time>2019-08-09T09:14:07.559Z</time>
      </trkpt>
      <trkpt lat="47.27547" lon="0.33993">
        <ele>37</ele>
        <time>2019-08-09T09:14:34.683Z</time>
      </trkpt>
      <trkpt lat="47.27598" lon="0.34163">
        <ele>35</ele>
        <time>2019-08-09T09:15:37.642Z</time>
      </trkpt>
      <trkpt lat="47.27621" lon="0.34197">
        <ele>35</ele>
        <time>2019-08-09T09:15:54.120Z</time>
      </trkpt>
      <trkpt lat="47.27653" lon="0.34212">
        <ele>35</ele>
        <time>2019-08-09T09:16:10.970Z</time>
      </trkpt>
      <trkpt lat="47.27784" lon="0.34457">
        <ele>36</ele>
        <time>2019-08-09T09:17:56.762Z</time>
      </trkpt>
      <trkpt lat="47.27915" lon="0.34525">
        <ele>35</ele>
        <time>2019-08-09T09:19:06.337Z</time>
      </trkpt>
      <trkpt lat="47.28051" lon="0.34588">
        <ele>36</ele>
        <time>2019-08-09T09:20:17.302Z</time>
      </trkpt>
      <trkpt lat="47.28123" lon="0.34781">
        <ele>37</ele>
        <time>2019-08-09T09:21:32.293Z</time>
      </trkpt>
      <trkpt lat="47.28145" lon="0.34849">
        <ele>37</ele>
        <time>2019-08-09T09:21:58.039Z</time>
      </trkpt>
      <trkpt lat="47.28234" lon="0.34843">
        <ele>37</ele>
        <time>2019-08-09T09:22:42.526Z</time>
      </trkpt>
      <trkpt lat="47.28343" lon="0.34912">
        <ele>36</ele>
        <time>2019-08-09T09:23:41.922Z</time>
      </trkpt>
      <trkpt lat="47.28369" lon="0.3503">
        <ele>36</ele>
        <time>2019-08-09T09:24:24.067Z</time>
      </trkpt>
      <trkpt lat="47.28351" lon="0.35163">
        <ele>38</ele>
        <time>2019-08-09T09:25:10.226Z</time>
      </trkpt>
      <trkpt lat="47.28393" lon="0.35257">
        <ele>36</ele>
        <time>2019-08-09T09:25:48.601Z</time>
      </trkpt>
      <trkpt lat="47.28441" lon="0.35472">
        <ele>37</ele>
        <time>2019-08-09T09:27:05.302Z</time>
      </trkpt>
      <trkpt lat="47.28489" lon="0.3565">
        <ele>38</ele>
        <time>2019-08-09T09:28:10.352Z</time>
      </trkpt>
      <trkpt lat="47.28563" lon="0.35832">
        <ele>36</ele>
        <time>2019-08-09T09:29:22.569Z</time>
      </trkpt>
      <trkpt lat="47.28582" lon="0.36004">
        <ele>36</ele>
        <time>2019-08-09T09:30:21.577Z</time>
      </trkpt>
      <trkpt lat="47.28652" lon="0.36094">
        <ele>36</ele>
        <time>2019-08-09T09:31:08.060Z</time>
      </trkpt>
      <trkpt lat="47.2876" lon="0.36231">
        <ele>36</ele>
        <time>2019-08-09T09:32:19.306Z</time>
      </trkpt>
      <trkpt lat="47.28816" lon="0.36512">
        <ele>36</ele>
        <time>2019-08-09T09:33:58.844Z</time>
      </trkpt>
      <trkpt lat="47.28623" lon="0.3663">
        <ele>37</ele>
        <time>2019-08-09T09:35:43.624Z</time>
      </trkpt>
      <trkpt lat="47.28605" lon="0.36691">
        <ele>36</ele>
        <time>2019-08-09T09:36:05.823Z</time>
      </trkpt>
      <trkpt lat="47.28672" lon="0.36772">
        <ele>36</ele>
        <time>2019-08-09T09:36:49.288Z</time>
      </trkpt>
      <trkpt lat="47.28722" lon="0.36884">
        <ele>37</ele>
        <time>2019-08-09T09:37:34.519Z</time>
      </trkpt>
      <trkpt lat="47.28757" lon="0.37036">
        <ele>38</ele>
        <time>2019-08-09T09:38:29.098Z</time>
      </trkpt>
      <trkpt lat="47.28822" lon="0.37358">
        <ele>38</ele>
        <time>2019-08-09T09:40:23.165Z</time>
      </trkpt>
      <trkpt lat="47.28768" lon="0.37399">
        <ele>38</ele>
        <time>2019-08-09T09:40:53.483Z</time>
      </trkpt>
      <trkpt lat="47.28797" lon="0.37439">
        <ele>38</ele>
        <time>2019-08-09T09:41:13.554Z</time>
      </trkpt>
      <trkpt lat="47.28886" lon="0.37678">
        <ele>38</ele>
        <time>2019-08-09T09:42:45.807Z</time>
      </trkpt>
      <trkpt lat="47.28927" lon="0.3772">
        <ele>37</ele>
        <time>2019-08-09T09:43:10.883Z</time>
      </trkpt>
      <trkpt lat="47.2896" lon="0.37714">
        <ele>37</ele>
        <time>2019-08-09T09:43:27.736Z</time>
      </trkpt>
      <trkpt lat="47.29078" lon="0.37954">
        <ele>41</ele>
        <time>2019-08-09T09:45:08.394Z</time>
      </trkpt>
      <trkpt lat="47.29094" lon="0.38152">
        <ele>40</ele>
        <time>2019-08-09T09:46:15.867Z</time>
      </trkpt>
      <trkpt lat="47.29122" lon="0.38184">
        <ele>38</ele>
        <time>2019-08-09T09:46:33.518Z</time>
      </trkpt>
      <trkpt lat="47.29056" lon="0.38276">
        <ele>38</ele>
        <time>2019-08-09T09:47:18.856Z</time>
      </trkpt>
      <trkpt lat="47.29099" lon="0.38287">
        <ele>37</ele>
        <time>2019-08-09T09:47:40.485Z</time>
      </trkpt>
      <trkpt lat="47.29186" lon="0.38395">
        <ele>39</ele>
        <time>2019-08-09T09:48:37.394Z</time>
      </trkpt>
      <trkpt lat="47.29224" lon="0.38609">
        <ele>39</ele>
        <time>2019-08-09T09:49:52.470Z</time>
      </trkpt>
      <trkpt lat="47.29253" lon="0.38765">
        <ele>37</ele>
        <time>2019-08-09T09:50:47.367Z</time>
      </trkpt>
      <trkpt lat="47.29301" lon="0.3877">
        <ele>37</ele>
        <time>2019-08-09T09:51:11.445Z</time>
      </trkpt>
      <trkpt lat="47.29291" lon="0.38909">
        <ele>38</ele>
        <time>2019-08-09T09:51:58.884Z</time>
      </trkpt>
      <trkpt lat="47.29316" lon="0.38997">
        <ele>37</ele>
        <time>2019-08-09T09:52:31.263Z</time>
      </trkpt>
      <trkpt lat="47.29324" lon="0.39116">
        <ele>37</ele>
        <time>2019-08-09T09:53:11.847Z</time>
      </trkpt>
      <trkpt lat="47.29366" lon="0.39227">
        <ele>36</ele>
        <time>2019-08-09T09:53:54.984Z</time>
      </trkpt>
      <trkpt lat="47.29422" lon="0.39327">
        <ele>37</ele>
        <time>2019-08-09T09:54:38.995Z</time>
      </trkpt>
      <trkpt lat="47.29457" lon="0.39467">
        <ele>38</ele>
        <time>2019-08-09T09:55:29.632Z</time>
      </trkpt>
      <trkpt lat="47.2943" lon="0.39633">
        <ele>36</ele>
        <time>2019-08-09T09:56:27.565Z</time>
      </trkpt>
      <trkpt lat="47.29484" lon="0.39757">
        <ele>36</ele>
        <time>2019-08-09T09:57:17.572Z</time>
      </trkpt>
      <trkpt lat="47.29509" lon="0.39914">
        <ele>37</ele>
        <time>2019-08-09T09:58:12.345Z</time>
      </trkpt>
      <trkpt lat="47.29561" lon="0.39989">
        <ele>37</ele>
        <time>2019-08-09T09:58:48.769Z</time>
      </trkpt>
      <trkpt lat="47.29593" lon="0.40047">
        <ele>38</ele>
        <time>2019-08-09T09:59:14.149Z</time>
      </trkpt>
      <trkpt lat="47.2965" lon="0.40193">
        <ele>38</ele>
        <time>2019-08-09T10:00:11.301Z</time>
      </trkpt>
      <trkpt lat="47.29786" lon="0.40098">
        <ele>36</ele>
        <time>2019-08-09T10:01:26.137Z</time>
      </trkpt>
      <trkpt lat="47.29931" lon="0.4">
        <ele>40</ele>
        <time>2019-08-09T10:02:46.178Z</time>
      </trkpt>
      <trkpt lat="47.29997" lon="0.40044">
        <ele>38</ele>
        <time>2019-08-09T10:03:22.250Z</time>
      </trkpt>
      <trkpt lat="47.30131" lon="0.40907">
        <ele>39</ele>
        <time>2019-08-09T10:08:22.595Z</time>
      </trkpt>
      <trkpt lat="47.30132" lon="0.41049">
        <ele>39</ele>
        <time>2019-08-09T10:09:10.611Z</time>
      </trkpt>
      <trkpt lat="47.30048" lon="0.41085">
        <ele>38</ele>
        <time>2019-08-09T10:09:54.574Z</time>
      </trkpt>
      <trkpt lat="47.30041" lon="0.41287">
        <ele>38</ele>
        <time>2019-08-09T10:11:03.104Z</time>
      </trkpt>
      <trkpt lat="47.30065" lon="0.41372">
        <ele>38</ele>
        <time>2019-08-09T10:11:34.304Z</time>
      </trkpt>
      <trkpt lat="47.30098" lon="0.4138">
        <ele>38</ele>
        <time>2019-08-09T10:11:51.313Z</time>
      </trkpt>
      <trkpt lat="47.30127" lon="0.4139">
        <ele>38</ele>
        <time>2019-08-09T10:12:05.900Z</time>
      </trkpt>
      <trkpt lat="47.30178" lon="0.41427">
        <ele>39</ele>
        <time>2019-08-09T10:12:34.700Z</time>
      </trkpt>
      <trkpt lat="47.30269" lon="0.41559">
        <ele>39</ele>
        <time>2019-08-09T10:13:38.298Z</time>
      </trkpt>
      <trkpt lat="47.30346" lon="0.41797">
        <ele>38</ele>
        <time>2019-08-09T10:15:07.988Z</time>
      </trkpt>
      <trkpt lat="47.30421" lon="0.419">
        <ele>39</ele>
        <time>2019-08-09T10:15:59.270Z</time>
      </trkpt>
      <trkpt lat="47.30434" lon="0.41941">
        <ele>39</ele>
        <time>2019-08-09T10:16:14.545Z</time>
      </trkpt>
      <trkpt lat="47.30564" lon="0.42501">
        <ele>39</ele>
        <time>2019-08-09T10:19:35.430Z</time>
      </trkpt>
      <trkpt lat="47.30766" lon="0.42686">
        <ele>38</ele>
        <time>2019-08-09T10:21:34.236Z</time>
      </trkpt>
      <trkpt lat="47.30813" lon="0.42757">
        <ele>39</ele>
        <time>2019-08-09T10:22:07.738Z</time>
      </trkpt>
      <trkpt lat="47.30963" lon="0.43147">
        <ele>42</ele>
        <time>2019-08-09T10:24:39.985Z</time>
      </trkpt>
      <trkpt lat="47.30966" lon="0.43248">
        <ele>41</ele>
        <time>2019-08-09T10:25:14.215Z</time>
      </trkpt>
      <trkpt lat="47.30955" lon="0.43304">
        <ele>40</ele>
        <time>2019-08-09T10:25:33.822Z</time>
      </trkpt>
      <trkpt lat="47.30948" lon="0.43578">
        <ele>39</ele>
        <time>2019-08-09T10:27:07.092Z</time>
      </trkpt>
      <trkpt lat="47.31034" lon="0.43767">
        <ele>39</ele>
        <time>2019-08-09T10:28:24.231Z</time>
      </trkpt>
      <trkpt lat="47.31095" lon="0.43799">
        <ele>38</ele>
        <time>2019-08-09T10:28:56.697Z</time>
      </trkpt>
      <trkpt lat="47.31262" lon="0.43965">
        <ele>39</ele>
        <time>2019-08-09T10:30:37.439Z</time>
      </trkpt>
      <trkpt lat="47.31315" lon="0.44025">
        <ele>39</ele>
        <time>2019-08-09T10:31:10.614Z</time>
      </trkpt>
      <trkpt lat="47.31369" lon="0.44306">
        <ele>39</ele>
        <time>2019-08-09T10:32:49.718Z</time>
      </trkpt>
      <trkpt lat="47.31393" lon="0.44387">
        <ele>40</ele>
        <time>2019-08-09T10:33:20.003Z</time>
      </trkpt>
      <trkpt lat="47.31492" lon="0.44493">
        <ele>40</ele>
        <time>2019-08-09T10:34:21.017Z</time>
      </trkpt>
      <trkpt lat="47.31628" lon="0.44716">
        <ele>42</ele>
        <time>2019-08-09T10:36:02.562Z</time>
      </trkpt>
      <trkpt lat="47.31632" lon="0.44776">
        <ele>42</ele>
        <time>2019-08-09T10:36:23.068Z</time>
      </trkpt>
      <trkpt lat="47.31598" lon="0.45042">
        <ele>42</ele>
        <time>2019-08-09T10:37:54.881Z</time>
      </trkpt>
      <trkpt lat="47.3153" lon="0.45246">
        <ele>40</ele>
        <time>2019-08-09T10:39:12.025Z</time>
      </trkpt>
      <trkpt lat="47.31527" lon="0.45359">
        <ele>40</ele>
        <time>2019-08-09T10:39:50.657Z</time>
      </trkpt>
      <trkpt lat="47.3153" lon="0.45473">
        <ele>40</ele>
        <time>2019-08-09T10:40:29.256Z</time>
      </trkpt>
      <trkpt lat="47.31563" lon="0.45459">
        <ele>40</ele>
        <time>2019-08-09T10:40:46.188Z</time>
      </trkpt>
      <trkpt lat="47.31614" lon="0.45368">
        <ele>41</ele>
        <time>2019-08-09T10:41:26.581Z</time>
      </trkpt>
      <trkpt lat="47.31624" lon="0.45441">
        <ele>40</ele>
        <time>2019-08-09T10:41:51.812Z</time>
      </trkpt>
      <trkpt lat="47.31704" lon="0.45585">
        <ele>44</ele>
        <time>2019-08-09T10:42:55.015Z</time>
      </trkpt>
      <trkpt lat="47.3172" lon="0.45631">
        <ele>44</ele>
        <time>2019-08-09T10:43:12.493Z</time>
      </trkpt>
      <trkpt lat="47.31742" lon="0.45678">
        <ele>43</ele>
        <time>2019-08-09T10:43:31.841Z</time>
      </trkpt>
      <trkpt lat="47.31765" lon="0.45721">
        <ele>42</ele>
        <time>2019-08-09T10:43:50.240Z</time>
      </trkpt>
      <trkpt lat="47.31807" lon="0.4586">
        <ele>42</ele>
        <time>2019-08-09T10:44:42.141Z</time>
      </trkpt>
      <trkpt lat="47.31827" lon="0.4589">
        <ele>42</ele>
        <time>2019-08-09T10:44:56.293Z</time>
      </trkpt>
      <trkpt lat="47.31833" lon="0.45921">
        <ele>42</ele>
        <time>2019-08-09T10:45:07.099Z</time>
      </trkpt>
      <trkpt lat="47.31845" lon="0.45947">
        <ele>42</ele>
        <time>2019-08-09T10:45:17.713Z</time>
      </trkpt>
      <trkpt lat="47.31874" lon="0.46009">
        <ele>44</ele>
        <time>2019-08-09T10:45:43.404Z</time>
      </trkpt>
      <trkpt lat="47.31895" lon="0.46014">
        <ele>43</ele>
        <time>2019-08-09T10:45:54.053Z</time>
      </trkpt>
      <trkpt lat="47.31911" lon="0.46024">
        <ele>43</ele>
        <time>2019-08-09T10:46:02.689Z</time>
      </trkpt>
      <trkpt lat="47.31923" lon="0.46042">
        <ele>42</ele>
        <time>2019-08-09T10:46:10.991Z</time>
      </trkpt>
      <trkpt lat="47.31946" lon="0.46084">
        <ele>44</ele>
        <time>2019-08-09T10:46:29.427Z</time>
      </trkpt>
      <trkpt lat="47.3198" lon="0.46148">
        <ele>45</ele>
        <time>2019-08-09T10:46:57.150Z</time>
      </trkpt>
      <trkpt lat="47.31997" lon="0.46189">
        <ele>46</ele>
        <time>2019-08-09T10:47:13.404Z</time>
      </trkpt>
      <trkpt lat="47.32008" lon="0.46212">
        <ele>47</ele>
        <time>2019-08-09T10:47:22.926Z</time>
      </trkpt>
      <trkpt lat="47.32021" lon="0.4623">
        <ele>47</ele>
        <time>2019-08-09T10:47:31.857Z</time>
      </trkpt>
      <trkpt lat="47.32034" lon="0.46248">
        <ele>47</ele>
        <time>2019-08-09T10:47:40.752Z</time>
      </trkpt>
      <trkpt lat="47.32048" lon="0.46261">
        <ele>47</ele>
        <time>2019-08-09T10:47:48.982Z</time>
      </trkpt>
      <trkpt lat="47.32072" lon="0.46285">
        <ele>47</ele>
        <time>2019-08-09T10:48:03.582Z</time>
      </trkpt>
      <trkpt lat="47.32087" lon="0.46302">
        <ele>46</ele>
        <time>2019-08-09T10:48:13.314Z</time>
      </trkpt>
      <trkpt lat="47.32092" lon="0.46306">
        <ele>46</ele>
        <time>2019-08-09T10:48:16.084Z</time>
      </trkpt>
      <trkpt lat="47.32112" lon="0.46328">
        <ele>46</ele>
        <time>2019-08-09T10:48:28.368Z</time>
      </trkpt>
      <trkpt lat="47.32153" lon="0.46373">
        <ele>44</ele>
        <time>2019-08-09T10:48:53.899Z</time>
      </trkpt>
      <trkpt lat="47.32199" lon="0.46431">
        <ele>43</ele>
        <time>2019-08-09T10:49:24.178Z</time>
      </trkpt>
      <trkpt lat="47.3221" lon="0.46447">
        <ele>43</ele>
        <time>2019-08-09T10:49:32.041Z</time>
      </trkpt>
      <trkpt lat="47.32233" lon="0.46477">
        <ele>43</ele>
        <time>2019-08-09T10:49:47.171Z</time>
      </trkpt>
      <trkpt lat="47.32269" lon="0.46529">
        <ele>41</ele>
        <time>2019-08-09T10:50:12.383Z</time>
      </trkpt>
      <trkpt lat="47.32313" lon="0.46578">
        <ele>41</ele>
        <time>2019-08-09T10:50:40.189Z</time>
      </trkpt>
      <trkpt lat="47.3234" lon="0.46619">
        <ele>42</ele>
        <time>2019-08-09T10:50:59.512Z</time>
      </trkpt>
      <trkpt lat="47.32358" lon="0.46649">
        <ele>42</ele>
        <time>2019-08-09T10:51:13.193Z</time>
      </trkpt>
      <trkpt lat="47.32382" lon="0.46688">
        <ele>43</ele>
        <time>2019-08-09T10:51:31.068Z</time>
      </trkpt>
      <trkpt lat="47.32417" lon="0.46717">
        <ele>42</ele>
        <time>2019-08-09T10:51:51.017Z</time>
      </trkpt>
      <trkpt lat="47.32459" lon="0.46748">
        <ele>41</ele>
        <time>2019-08-09T10:52:14.399Z</time>
      </trkpt>
      <trkpt lat="47.32492" lon="0.46784">
        <ele>41</ele>
        <time>2019-08-09T10:52:35.016Z</time>
      </trkpt>
      <trkpt lat="47.32518" lon="0.46831">
        <ele>41</ele>
        <time>2019-08-09T10:52:55.615Z</time>
      </trkpt>
      <trkpt lat="47.32529" lon="0.46855">
        <ele>42</ele>
        <time>2019-08-09T10:53:05.418Z</time>
      </trkpt>
      <trkpt lat="47.32557" lon="0.46896">
        <ele>43</ele>
        <time>2019-08-09T10:53:25.504Z</time>
      </trkpt>
      <trkpt lat="47.32574" lon="0.46913">
        <ele>44</ele>
        <time>2019-08-09T10:53:35.456Z</time>
      </trkpt>
      <trkpt lat="47.32639" lon="0.47062">
        <ele>43</ele>
        <time>2019-08-09T10:54:35.634Z</time>
      </trkpt>
      <trkpt lat="47.32669" lon="0.47071">
        <ele>43</ele>
        <time>2019-08-09T10:54:50.596Z</time>
      </trkpt>
      <trkpt lat="47.32694" lon="0.4707">
        <ele>42</ele>
        <time>2019-08-09T10:55:03.258Z</time>
      </trkpt>
      <trkpt lat="47.32719" lon="0.47067">
        <ele>42</ele>
        <time>2019-08-09T10:55:16.061Z</time>
      </trkpt>
      <trkpt lat="47.32744" lon="0.47063">
        <ele>42</ele>
        <time>2019-08-09T10:55:28.371Z</time>
      </trkpt>
      <trkpt lat="47.32772" lon="0.47047">
        <ele>41</ele>
        <time>2019-08-09T10:55:43.610Z</time>
      </trkpt>
      <trkpt lat="47.32792" lon="0.47037">
        <ele>41</ele>
        <time>2019-08-09T10:55:53.970Z</time>
      </trkpt>
      <trkpt lat="47.32813" lon="0.47032">
        <ele>41</ele>
        <time>2019-08-09T10:56:04.718Z</time>
      </trkpt>
      <trkpt lat="47.32824" lon="0.47053">
        <ele>41</ele>
        <time>2019-08-09T10:56:13.662Z</time>
      </trkpt>
      <trkpt lat="47.32872" lon="0.47082">
        <ele>41</ele>
        <time>2019-08-09T10:56:39.503Z</time>
      </trkpt>
      <trkpt lat="47.32937" lon="0.47124">
        <ele>40</ele>
        <time>2019-08-09T10:57:15.180Z</time>
      </trkpt>
      <trkpt lat="47.32926" lon="0.4707">
        <ele>40</ele>
        <time>2019-08-09T10:57:34.549Z</time>
      </trkpt>
      <trkpt lat="47.32944" lon="0.4703">
        <ele>40</ele>
        <time>2019-08-09T10:57:50.582Z</time>
      </trkpt>
      <trkpt lat="47.33141" lon="0.46919">
        <ele>40</ele>
        <time>2019-08-09T10:59:36.051Z</time>
      </trkpt>
    </trkseg>
  </trk>
</gpx>